Detall de PIREP

Printer-friendly versionPDF version

[2014/08/16 15:36:00]
Flight IATA:CT1050
Pilot Number:042
Company ICAO:CAT
Aircraft Type:AT72/F
PAX:28
Departing Airport: LEMH
Destination Airport: LFKJ
Alternate Airport:LFKB
Online: VATSIM
Route:ISTER UN851 NEGAT
Flight Level:F180
No Slew and time accel
No pause
Crash detect
Detect pilot in Cockpit between each 30 and 45 minutes
15:36 Zero fuel Weight: 40070 Lbs, Fuel Weight: 11194 Lbs
15:36 VATSIM:LEMH 161500Z 03015KT 9999 FEW025 24/13 Q1020
15:36 VATSIM:LFKJ 161500Z 23008KT 200V260 9999 FEW033 BKN230 24/14 Q1016 NOSIG
15:47 Parking Brakes off
15:55 Take-off
15:55 Take off Weight: 51151 Lbs
15:55 Wind: 039º @ 014 Knots Heading: 010º
15:55 POS N39º 51´ 43´´ E004º 13´ 07´´
15:55 Gear Up: 117 Knots
15:55 Flaps:1 at 117 Knots
15:56 Flaps:0 at 151 Knots
16:05 TOC
16:05 Fuel Weight: 10613 Lb
16:10 Wind:028º@036 Knots Heading: 055º Ground Speed: 235 Knots Altitude18195 ft
16:25 Wind:316º@024 Knots Heading: 054º Ground Speed: 233 Knots Altitude 18113 ft
16:40 Wind:290º@023 Knots Heading: 056º Ground Speed: 209 Knots Altitude 18093 ft
16:43 TOD
16:43 Fuel Weight: 9889 Lb
16:55 Wind:250º@012 Knots Heading: 052º Ground Speed: 194 Knots Altitude 4084 ft
16:59 Flaps:1 at 149 Knots
17:01 Flaps:2 at 155 Knots
17:01 Gear Down: 141 Knots
17:05 TouchDown:Rate -123 ft/min Speed: 96 Knots
17:06 VATSIM:LFKJ 161700Z AUTO 22004KT 180V260 9999 NSC 23/14 Q1016
17:06 Land
17:06 Wind:195º@006 Knots
17:06 Heading: 023º
17:06 Flight Duration: 01:11
17:06 Landing Weight: 49743 Lbs
17:06 POS N41º 55´ 16´´ E008º 48´ 03´´
17:08 Parking brakes on
17:08 Block to Block Duration: 01:21
17:08 Final Fuel: 9656 Lbls
17:08 Spent Fuel: 1538 Lbls
17:08 Flight Length: 251 NM
17:08 TOD Land Length: 69 NM

Exportar CSV

Powered by Drupal - Modified by Danger4k